createdAt,value
2023-03-07T00:02:25.064Z,10.52
2023-03-07T00:04:56.514Z,14.40
2023-03-07T00:07:27.971Z,13.23
2023-03-07T00:09:59.400Z,11.25
2023-03-07T00:12:34.408Z,11.00
2023-03-07T00:15:06.511Z,11.13
2023-03-07T00:17:39.202Z,10.77
2023-03-07T00:20:11.252Z,11.57
2023-03-07T00:22:44.182Z,9.20
2023-03-07T00:25:15.982Z,12.07
2023-03-07T00:27:47.419Z,11.07
2023-03-07T00:30:18.901Z,10.63
2023-03-07T00:32:50.341Z,12.73
2023-03-07T00:35:21.808Z,11.07
2023-03-07T00:37:53.283Z,9.63
2023-03-07T00:40:24.745Z,9.82
2023-03-07T00:42:56.153Z,7.95
2023-03-07T00:45:27.677Z,10.93
2023-03-07T00:47:59.097Z,9.13
2023-03-07T00:50:30.579Z,11.82
2023-03-07T00:53:02.014Z,13.57
2023-03-07T00:55:33.484Z,10.32
2023-03-07T00:58:04.958Z,13.07
2023-03-07T01:00:36.479Z,9.18
2023-03-07T01:03:07.960Z,8.87
2023-03-07T01:05:40.311Z,8.25
2023-03-07T01:08:12.302Z,11.63
2023-03-07T01:10:44.398Z,10.43
2023-03-07T01:13:17.734Z,11.32
2023-03-07T01:15:49.360Z,10.75
2023-03-07T01:18:20.821Z,9.32
2023-03-07T01:20:52.276Z,7.80
2023-03-07T01:23:23.742Z,9.80
2023-03-07T01:25:55.156Z,10.60
2023-03-07T01:28:26.632Z,10.25
2023-03-07T01:30:59.241Z,13.45
2023-03-07T01:33:30.695Z,12.32
2023-03-07T01:36:02.386Z,10.15
2023-03-07T01:38:33.852Z,12.65
2023-03-07T01:41:05.349Z,14.27
2023-03-07T01:43:36.843Z,13.35
2023-03-07T01:46:17.289Z,8.13
2023-03-07T01:48:52.928Z,9.73
2023-03-07T01:51:25.264Z,10.52
2023-03-07T01:53:58.832Z,9.82
2023-03-07T01:56:30.876Z,8.63
2023-03-07T01:59:02.906Z,9.77
2023-03-07T02:01:34.779Z,9.15
2023-03-07T02:04:38.127Z,12.50
2023-03-07T02:07:10.995Z,10.83
2023-03-07T02:09:45.035Z,9.98
2023-03-07T02:12:16.753Z,11.20
2023-03-07T02:14:49.124Z,11.95
2023-03-07T02:17:20.829Z,11.98
2023-03-07T02:20:03.156Z,12.30
2023-03-07T02:22:34.693Z,9.30
2023-03-07T02:25:17.171Z,8.10
2023-03-07T02:27:51.868Z,10.77
2023-03-07T02:30:23.405Z,10.90
2023-03-07T02:32:54.838Z,12.52
2023-03-07T02:35:26.478Z,9.20
2023-03-07T02:38:01.451Z,9.88
2023-03-07T02:40:33.302Z,8.73
2023-03-07T02:43:05.484Z,7.85
2023-03-07T02:45:36.908Z,9.63
2023-03-07T02:48:08.332Z,10.32
2023-03-07T02:50:39.814Z,7.63
2023-03-07T02:53:11.269Z,8.45
2023-03-07T02:55:42.884Z,8.43
2023-03-07T02:58:14.307Z,10.68
2023-03-07T03:00:45.771Z,8.10
2023-03-07T03:03:17.568Z,9.65
2023-03-07T03:05:49.079Z,8.93
2023-03-07T03:08:20.543Z,9.65
2023-03-07T03:10:53.830Z,7.78
2023-03-07T03:13:25.351Z,7.23
2023-03-07T03:15:57.936Z,8.05
2023-03-07T03:18:29.955Z,7.93
2023-03-07T03:21:07.546Z,6.65
2023-03-07T03:23:39.005Z,8.83
2023-03-07T03:26:10.509Z,8.07
2023-03-07T03:28:41.977Z,8.57
2023-03-07T03:31:13.606Z,7.53
2023-03-07T03:33:45.130Z,5.82
2023-03-07T03:36:17.178Z,7.60
2023-03-07T03:38:48.661Z,6.10
2023-03-07T03:41:20.204Z,7.75
2023-03-07T03:43:52.042Z,6.53
2023-03-07T03:46:23.512Z,8.23
2023-03-07T03:48:56.253Z,4.40
2023-03-07T03:51:28.077Z,5.28
2023-03-07T03:53:59.511Z,10.85
2023-03-07T03:56:30.976Z,9.70
2023-03-07T03:59:02.385Z,10.20
2023-03-07T04:01:33.986Z,11.80
2023-03-07T04:04:05.507Z,9.00
2023-03-07T04:06:36.954Z,10.43
2023-03-07T04:09:09.834Z,9.00
2023-03-07T04:11:41.311Z,10.15
2023-03-07T04:14:12.737Z,7.13
2023-03-07T04:16:44.317Z,8.07
2023-03-07T04:19:15.909Z,8.20
2023-03-07T04:21:47.363Z,8.25
2023-03-07T04:24:18.828Z,6.03
2023-03-07T04:26:50.238Z,9.15
2023-03-07T04:29:21.699Z,7.32
2023-03-07T04:31:53.177Z,6.82
2023-03-07T04:34:24.730Z,9.32
2023-03-07T04:36:56.159Z,10.90
2023-03-07T04:39:27.631Z,10.48
2023-03-07T04:41:59.047Z,11.17
2023-03-07T04:44:30.467Z,8.38
2023-03-07T04:47:01.935Z,7.97
2023-03-07T04:49:33.458Z,5.47
2023-03-07T04:52:05.293Z,6.43
2023-03-07T04:54:36.822Z,8.73
2023-03-07T04:57:08.294Z,6.55
2023-03-07T04:59:45.607Z,6.73
2023-03-07T05:02:17.077Z,8.93
2023-03-07T05:04:48.480Z,5.22
2023-03-07T05:07:19.962Z,6.97
2023-03-07T05:09:51.428Z,7.10
2023-03-07T05:12:24.072Z,4.75
2023-03-07T05:14:55.517Z,6.38
2023-03-07T05:17:29.392Z,6.20
2023-03-07T05:20:00.848Z,7.57
2023-03-07T05:22:32.594Z,4.00
2023-03-07T05:25:04.275Z,3.42
2023-03-07T05:27:35.677Z,5.43
2023-03-07T05:30:08.301Z,4.75
2023-03-07T05:32:40.000Z,6.68
2023-03-07T05:35:11.760Z,5.25
2023-03-07T05:37:43.220Z,3.90
2023-03-07T05:40:14.748Z,3.45
2023-03-07T05:42:46.269Z,4.00
2023-03-07T05:45:17.713Z,4.90
2023-03-07T05:47:49.181Z,2.90
2023-03-07T05:50:20.750Z,4.10
2023-03-07T05:52:52.219Z,4.32
2023-03-07T05:55:23.648Z,3.55
2023-03-07T05:57:55.040Z,4.28
2023-03-07T06:00:27.030Z,4.72
2023-03-07T06:02:58.619Z,3.70
2023-03-07T06:05:30.264Z,4.03
2023-03-07T06:08:01.723Z,5.25
2023-03-07T06:10:33.243Z,5.50
2023-03-07T06:13:04.698Z,5.95
2023-03-07T06:15:36.226Z,5.35
2023-03-07T06:18:07.676Z,5.00
2023-03-07T06:20:39.269Z,3.20
2023-03-07T06:23:13.039Z,5.40
2023-03-07T06:25:44.763Z,5.38
2023-03-07T06:28:16.280Z,5.00
2023-03-07T06:30:47.796Z,4.40
2023-03-07T06:33:19.615Z,5.05
2023-03-07T06:35:51.085Z,2.58
2023-03-07T06:38:22.564Z,3.33
2023-03-07T06:40:57.243Z,4.63
2023-03-07T06:43:28.823Z,5.38
2023-03-07T06:46:00.744Z,6.13
2023-03-07T06:48:32.248Z,4.20
2023-03-07T06:51:08.054Z,4.03
2023-03-07T06:53:39.552Z,3.58
2023-03-07T06:56:11.066Z,5.23
2023-03-07T06:58:42.494Z,4.30
2023-03-07T07:01:22.000Z,6.18
2023-03-07T07:03:53.467Z,6.05
2023-03-07T07:06:24.923Z,4.50
2023-03-07T07:08:57.644Z,5.57
2023-03-07T07:11:29.142Z,6.30
2023-03-07T07:14:00.597Z,4.93
2023-03-07T07:16:32.041Z,7.22
2023-03-07T07:19:03.562Z,4.82
2023-03-07T07:21:34.956Z,6.53
2023-03-07T07:24:06.628Z,5.65
2023-03-07T07:26:38.376Z,3.30
2023-03-07T07:29:10.006Z,6.78
2023-03-07T07:31:41.879Z,5.10
2023-03-07T07:34:13.377Z,5.47
2023-03-07T07:36:44.818Z,3.28
2023-03-07T07:39:16.417Z,5.03
2023-03-07T07:41:47.888Z,4.78
2023-03-07T07:44:19.346Z,8.10
2023-03-07T07:46:50.751Z,4.18
2023-03-07T07:49:22.209Z,3.35
2023-03-07T07:51:53.648Z,2.60
2023-03-07T07:54:25.401Z,5.45
2023-03-07T07:56:56.838Z,5.57
2023-03-07T07:59:28.298Z,4.57
2023-03-07T08:02:00.251Z,5.03
2023-03-07T08:04:31.689Z,5.15
2023-03-07T08:07:03.179Z,4.60
2023-03-07T08:09:34.730Z,6.10
2023-03-07T08:12:06.636Z,5.53
2023-03-07T08:14:38.585Z,5.72
2023-03-07T08:17:10.217Z,4.60
2023-03-07T08:19:41.680Z,5.27
2023-03-07T08:22:13.197Z,4.07
2023-03-07T08:24:46.168Z,8.18
2023-03-07T08:27:17.569Z,5.28
2023-03-07T08:29:49.605Z,7.38
2023-03-07T08:32:21.112Z,4.65
2023-03-07T08:34:53.000Z,6.47
2023-03-07T08:37:24.436Z,4.80
2023-03-07T08:39:55.904Z,6.82
2023-03-07T08:42:27.377Z,4.60
2023-03-07T08:44:58.907Z,5.90
2023-03-07T08:47:30.568Z,6.90
2023-03-07T08:50:02.709Z,5.47
2023-03-07T08:52:34.164Z,5.22
2023-03-07T08:55:06.126Z,5.25
2023-03-07T08:57:37.904Z,3.78
2023-03-07T09:00:10.398Z,5.05
2023-03-07T09:02:41.829Z,3.95
2023-03-07T09:05:13.326Z,6.63
2023-03-07T09:07:44.911Z,6.90
2023-03-07T09:10:17.214Z,3.67
2023-03-07T09:12:49.575Z,4.55
2023-03-07T09:15:21.905Z,3.13
2023-03-07T09:17:53.363Z,3.03
2023-03-07T09:20:25.631Z,2.80
2023-03-07T09:22:57.042Z,5.30
2023-03-07T09:25:28.555Z,6.38
2023-03-07T09:28:00.070Z,3.22
2023-03-07T09:30:31.506Z,3.20
2023-03-07T09:33:03.031Z,4.93
2023-03-07T09:35:34.711Z,6.15
2023-03-07T09:38:06.552Z,4.95
2023-03-07T09:40:38.704Z,6.07
2023-03-07T09:43:22.111Z,6.30
2023-03-07T09:46:13.089Z,6.65
2023-03-07T09:48:59.507Z,5.40
2023-03-07T09:51:41.019Z,5.25
2023-03-07T09:54:24.486Z,4.82
2023-03-07T09:56:59.045Z,6.78
2023-03-07T09:59:41.934Z,3.25
2023-03-07T10:02:16.184Z,3.88
2023-03-07T10:05:18.649Z,5.93
2023-03-07T10:07:50.159Z,5.05
2023-03-07T10:10:25.995Z,4.65
2023-03-07T10:13:15.847Z,5.95
2023-03-07T10:16:01.349Z,6.80
2023-03-07T10:18:45.103Z,5.20
2023-03-07T10:21:23.155Z,5.95
2023-03-07T10:24:06.625Z,5.10
2023-03-07T10:26:56.509Z,5.55
2023-03-07T10:29:36.643Z,4.23
2023-03-07T10:32:22.206Z,4.65
2023-03-07T10:35:12.019Z,5.03
2023-03-07T10:37:49.284Z,5.82
2023-03-07T10:40:48.304Z,5.10
2023-03-07T10:43:31.915Z,6.10
2023-03-07T10:46:25.245Z,4.87
2023-03-07T10:49:09.509Z,5.03
2023-03-07T10:52:03.901Z,3.55
2023-03-07T10:54:39.212Z,4.60
2023-03-07T10:57:15.695Z,5.65
2023-03-07T10:59:48.669Z,3.38
2023-03-07T11:02:34.397Z,4.93
2023-03-07T11:05:29.164Z,4.50
2023-03-07T11:08:19.873Z,5.20
2023-03-07T11:10:51.416Z,4.55
2023-03-07T11:13:23.803Z,4.35
2023-03-07T11:16:18.135Z,5.18
2023-03-07T11:18:49.635Z,5.10
2023-03-07T11:21:35.210Z,3.47
2023-03-07T11:24:22.562Z,4.28
2023-03-07T11:26:58.446Z,3.20
2023-03-07T11:29:29.932Z,4.47
2023-03-07T11:32:23.732Z,3.97
2023-03-07T11:35:14.116Z,3.28
2023-03-07T11:38:01.748Z,6.78
2023-03-07T11:40:44.960Z,2.85
2023-03-07T11:43:27.197Z,4.00
2023-03-07T11:46:06.103Z,3.85
2023-03-07T11:48:59.317Z,3.25
2023-03-07T11:51:58.177Z,3.65
2023-03-07T11:54:38.519Z,3.33
2023-03-07T11:57:27.233Z,4.65
2023-03-07T12:00:17.003Z,5.43
2023-03-07T12:03:03.423Z,3.50
2023-03-07T12:05:43.975Z,4.13
2023-03-07T12:08:29.812Z,3.80
2023-03-07T12:11:20.012Z,3.25
2023-03-07T12:14:00.303Z,3.47
2023-03-07T12:16:44.302Z,4.88
2023-03-07T12:19:53.541Z,3.70
2023-03-07T12:22:40.098Z,3.63
2023-03-07T12:25:38.024Z,2.70
2023-03-07T12:28:21.609Z,2.70
2023-03-07T12:31:13.064Z,3.87
2023-03-07T12:33:53.993Z,3.13
2023-03-07T12:36:52.194Z,2.70
2023-03-07T12:39:45.293Z,3.08
2023-03-07T12:42:35.225Z,3.67
2023-03-07T12:45:24.087Z,2.63
2023-03-07T12:48:21.993Z,5.00
2023-03-07T12:51:06.921Z,3.77
2023-03-07T12:54:05.004Z,4.17
2023-03-07T12:56:57.606Z,3.63
2023-03-07T12:59:32.267Z,3.17
2023-03-07T13:02:13.740Z,3.38
2023-03-07T13:04:45.232Z,4.22
2023-03-07T13:07:34.914Z,2.60
2023-03-07T13:10:07.481Z,3.28
2023-03-07T13:12:38.886Z,5.17
2023-03-07T13:15:19.266Z,6.00
2023-03-07T13:17:50.656Z,4.37
2023-03-07T13:20:28.275Z,3.55
2023-03-07T13:23:10.856Z,6.35
2023-03-07T13:25:46.496Z,5.43
2023-03-07T13:28:53.725Z,4.25
2023-03-07T13:31:28.085Z,4.57
2023-03-07T13:34:41.304Z,6.85
2023-03-07T13:37:48.395Z,3.55
2023-03-07T13:40:35.164Z,4.95
2023-03-07T13:43:28.272Z,6.63
2023-03-07T13:46:05.385Z,5.53
2023-03-07T13:48:39.801Z,6.00
2023-03-07T13:51:11.472Z,5.57
2023-03-07T13:53:46.152Z,4.70
2023-03-07T13:56:17.608Z,4.07
2023-03-07T13:59:14.655Z,3.70
2023-03-07T14:01:51.794Z,3.75
2023-03-07T14:04:40.838Z,2.40
2023-03-07T14:07:31.362Z,3.88
2023-03-07T14:10:23.991Z,3.95
2023-03-07T14:13:04.327Z,3.58
2023-03-07T14:15:42.552Z,2.33
2023-03-07T14:18:26.033Z,4.53
2023-03-07T14:21:09.714Z,4.22
2023-03-07T14:24:12.689Z,2.85
2023-03-07T14:26:48.882Z,2.60
2023-03-07T14:29:29.268Z,1.70
2023-03-07T14:32:01.318Z,3.40
2023-03-07T14:34:34.899Z,3.33
2023-03-07T14:37:11.468Z,3.88
2023-03-07T14:39:58.246Z,7.45
2023-03-07T14:43:02.381Z,6.53
2023-03-07T14:45:46.274Z,4.93
2023-03-07T14:48:48.783Z,4.45
2023-03-07T14:51:22.951Z,3.37
2023-03-07T14:53:55.979Z,4.18
2023-03-07T14:56:30.922Z,3.30
2023-03-07T14:59:03.553Z,6.03
2023-03-07T15:01:37.594Z,6.37
2023-03-07T15:04:30.507Z,1.70
2023-03-07T15:07:04.931Z,3.80
2023-03-07T15:09:36.421Z,5.32
2023-03-07T15:12:18.228Z,5.00
2023-03-07T15:14:54.044Z,5.40
2023-03-07T15:17:36.528Z,4.20
2023-03-07T15:20:23.888Z,3.25
2023-03-07T15:23:05.294Z,3.50
2023-03-07T15:25:36.756Z,3.78
2023-03-07T15:28:20.175Z,3.20
2023-03-07T15:30:53.674Z,4.38
2023-03-07T15:33:27.297Z,4.47
2023-03-07T15:36:11.191Z,4.80
2023-03-07T15:38:45.466Z,3.97
2023-03-07T15:41:32.732Z,3.27
2023-03-07T15:44:04.177Z,4.68
2023-03-07T15:46:38.555Z,5.10
2023-03-07T15:49:34.333Z,2.67
2023-03-07T15:52:06.382Z,3.30
2023-03-07T15:54:41.222Z,2.78
2023-03-07T15:57:23.003Z,3.60
2023-03-07T16:00:01.410Z,2.47
2023-03-07T16:02:32.942Z,3.67
2023-03-07T16:05:28.944Z,2.25
2023-03-07T16:08:00.762Z,3.60
2023-03-07T16:10:32.242Z,4.77
2023-03-07T16:13:03.652Z,3.83
2023-03-07T16:15:35.107Z,4.85
2023-03-07T16:18:06.678Z,3.20
2023-03-07T16:20:38.105Z,4.28
2023-03-07T16:23:13.584Z,4.93
2023-03-07T16:25:45.104Z,3.28
2023-03-07T16:28:16.567Z,2.90
2023-03-07T16:30:48.307Z,2.75
2023-03-07T16:33:19.821Z,3.25
2023-03-07T16:35:51.331Z,3.10
2023-03-07T16:38:22.777Z,3.33
2023-03-07T16:40:54.295Z,3.80
2023-03-07T16:43:33.296Z,2.60
2023-03-07T16:46:10.428Z,2.30
2023-03-07T16:48:42.501Z,3.45
2023-03-07T16:51:22.371Z,3.47
2023-03-07T16:53:53.784Z,3.57
2023-03-07T16:56:31.222Z,5.32
2023-03-07T16:59:03.021Z,5.57
2023-03-07T17:01:34.542Z,6.50
2023-03-07T17:04:06.037Z,4.00
2023-03-07T17:06:39.640Z,2.97
2023-03-07T17:09:13.204Z,3.75
2023-03-07T17:11:49.963Z,2.65
2023-03-07T17:14:21.381Z,3.65
2023-03-07T17:16:52.910Z,4.05
2023-03-07T17:19:29.648Z,2.90
2023-03-07T17:22:02.275Z,2.88
2023-03-07T17:24:33.697Z,4.70
2023-03-07T17:27:05.635Z,5.65
2023-03-07T17:29:47.018Z,5.68
2023-03-07T17:32:18.540Z,2.53
2023-03-07T17:34:50.060Z,3.83
2023-03-07T17:37:21.919Z,2.53
2023-03-07T17:39:53.447Z,7.28
2023-03-07T17:42:24.972Z,3.67
2023-03-07T17:44:56.362Z,4.43
2023-03-07T17:47:27.778Z,3.47
2023-03-07T17:50:00.997Z,3.38
2023-03-07T17:52:33.173Z,3.22
2023-03-07T17:55:09.567Z,4.07
2023-03-07T17:57:41.090Z,5.65
2023-03-07T18:00:13.693Z,3.70
2023-03-07T18:02:45.271Z,3.97
2023-03-07T18:05:17.834Z,3.58
2023-03-07T18:07:49.284Z,2.65
2023-03-07T18:10:20.773Z,1.52
2023-03-07T18:12:52.647Z,2.90
2023-03-07T18:15:24.108Z,2.80
2023-03-07T18:17:55.526Z,1.38
2023-03-07T18:20:27.045Z,3.03
2023-03-07T18:22:58.518Z,2.73
2023-03-07T18:25:30.118Z,2.53
2023-03-07T18:28:04.531Z,4.22
2023-03-07T18:30:35.975Z,2.60
2023-03-07T18:33:07.514Z,2.47
2023-03-07T18:35:40.498Z,1.90
2023-03-07T18:38:12.109Z,2.20
2023-03-07T18:40:43.532Z,1.73
2023-03-07T18:43:15.662Z,4.15
2023-03-07T18:45:47.110Z,3.95
2023-03-07T18:48:18.616Z,2.60
2023-03-07T18:51:03.858Z,3.10
2023-03-07T18:53:35.872Z,4.17
2023-03-07T18:56:10.704Z,5.28
2023-03-07T18:58:43.719Z,2.97
2023-03-07T19:01:19.819Z,3.20
2023-03-07T19:03:52.516Z,3.50
2023-03-07T19:06:26.244Z,2.38
2023-03-07T19:08:57.716Z,4.63
2023-03-07T19:11:29.535Z,3.42
2023-03-07T19:14:01.060Z,3.70
2023-03-07T19:16:32.519Z,6.82
2023-03-07T19:19:04.373Z,3.10
2023-03-07T19:21:35.791Z,2.30
2023-03-07T19:24:08.010Z,3.03
2023-03-07T19:26:40.038Z,4.10
2023-03-07T19:29:11.474Z,3.15
2023-03-07T19:31:42.906Z,2.40
2023-03-07T19:34:14.439Z,1.98
2023-03-07T19:36:45.892Z,0.95
2023-03-07T19:39:17.363Z,2.78
2023-03-07T19:41:48.875Z,2.10
2023-03-07T19:44:20.405Z,2.03
2023-03-07T19:46:51.872Z,1.98
2023-03-07T19:49:23.446Z,2.78
2023-03-07T19:51:54.873Z,2.43
2023-03-07T19:54:26.307Z,1.73
2023-03-07T19:56:57.763Z,2.50
2023-03-07T19:59:29.256Z,1.63
2023-03-07T20:02:00.749Z,2.53
2023-03-07T20:04:32.212Z,1.67
2023-03-07T20:07:03.778Z,3.30
2023-03-07T20:09:35.186Z,4.13
2023-03-07T20:12:07.300Z,4.50
2023-03-07T20:14:38.844Z,5.38
2023-03-07T20:17:12.611Z,3.42
2023-03-07T20:19:44.094Z,3.67
2023-03-07T20:22:15.549Z,2.87
2023-03-07T20:24:50.100Z,3.63
2023-03-07T20:27:21.543Z,2.28
2023-03-07T20:29:53.018Z,2.90
2023-03-07T20:32:24.561Z,2.45
2023-03-07T20:34:56.041Z,2.67
2023-03-07T20:37:27.605Z,1.45
2023-03-07T20:39:59.836Z,1.77
2023-03-07T20:42:31.552Z,1.52
2023-03-07T20:45:03.156Z,1.75
2023-03-07T20:47:34.593Z,1.60
2023-03-07T20:50:06.637Z,1.70
2023-03-07T20:52:38.058Z,2.58
2023-03-07T20:55:09.747Z,2.05
2023-03-07T20:57:41.557Z,2.30
2023-03-07T21:00:13.541Z,1.27
2023-03-07T21:02:48.060Z,2.25
2023-03-07T21:05:19.665Z,2.60
2023-03-07T21:07:51.086Z,1.90
2023-03-07T21:10:24.679Z,2.35
2023-03-07T21:12:56.464Z,2.78
2023-03-07T21:15:27.952Z,1.90
2023-03-07T21:17:59.379Z,3.15
2023-03-07T21:20:30.844Z,4.38
2023-03-07T21:23:02.391Z,2.88
2023-03-07T21:25:33.837Z,3.50
2023-03-07T21:28:05.982Z,8.05
2023-03-07T21:30:38.181Z,6.70
2023-03-07T21:33:10.082Z,5.68
2023-03-07T21:35:41.623Z,4.43
2023-03-07T21:38:13.089Z,4.70
2023-03-07T21:40:44.481Z,4.05
2023-03-07T21:43:16.211Z,5.03
2023-03-07T21:45:48.004Z,5.57
2023-03-07T21:48:19.813Z,5.22
2023-03-07T21:50:52.157Z,5.72
2023-03-07T21:53:24.082Z,4.85
2023-03-07T21:55:58.020Z,5.45
2023-03-07T21:58:30.697Z,5.32
2023-03-07T22:01:13.503Z,3.00
2023-03-07T22:03:45.271Z,3.38
2023-03-07T22:06:16.764Z,4.20
2023-03-07T22:08:48.271Z,6.00
2023-03-07T22:11:19.729Z,3.80
2023-03-07T22:13:51.190Z,4.80
2023-03-07T22:16:22.667Z,4.53
2023-03-07T22:18:55.939Z,3.70
2023-03-07T22:21:27.464Z,4.72
2023-03-07T22:23:58.876Z,6.45
2023-03-07T22:26:31.364Z,5.63
2023-03-07T22:29:02.858Z,5.30
2023-03-07T22:31:34.322Z,4.70
2023-03-07T22:34:05.781Z,3.58
2023-03-07T22:36:37.218Z,4.47
2023-03-07T22:39:09.913Z,5.35
2023-03-07T22:41:41.292Z,4.45
2023-03-07T22:44:12.733Z,3.85
2023-03-07T22:46:45.044Z,4.05
2023-03-07T22:49:16.598Z,4.00
2023-03-07T22:51:48.019Z,3.40
2023-03-07T22:54:19.533Z,4.47
2023-03-07T22:56:50.978Z,3.28
2023-03-07T22:59:22.410Z,3.47
2023-03-07T23:01:53.863Z,4.28
2023-03-07T23:04:25.305Z,2.93
2023-03-07T23:06:56.958Z,3.60
2023-03-07T23:09:28.443Z,4.47
2023-03-07T23:11:59.924Z,6.30
2023-03-07T23:14:31.448Z,5.57
2023-03-07T23:17:02.993Z,4.63
2023-03-07T23:19:34.368Z,5.97
2023-03-07T23:22:05.857Z,5.50
2023-03-07T23:24:37.287Z,4.57
2023-03-07T23:27:08.748Z,6.93
2023-03-07T23:29:40.156Z,5.90
2023-03-07T23:32:11.626Z,4.57
2023-03-07T23:34:43.075Z,6.22
2023-03-07T23:37:14.536Z,5.18
2023-03-07T23:39:45.977Z,3.88
2023-03-07T23:42:17.456Z,3.83
2023-03-07T23:44:49.059Z,3.40
2023-03-07T23:47:20.514Z,3.30
2023-03-07T23:49:51.982Z,3.42
2023-03-07T23:52:23.444Z,5.05
2023-03-07T23:54:54.872Z,4.15
2023-03-07T23:57:26.402Z,4.20
2023-03-07T23:59:57.833Z,4.20
